Aguilar, Colorado
Current Conditions -  °F | °C
As of 4:54 AM on Saturday 25 Oct 2014 (Local Time) from KTAD Reporting Station
Clear Clear  
Wind Chill: 50°   Ceiling: Unl
Heat Index: 50°   Visibility: 10mi
Dew Point: 27°   Wind: 14mph
Humidity: 41%   Direction: 250°WSW
Pressure: 30.24"   Gusts: NA
Location:  37.4°N, 104.65°W
Report Text: KTAD 251054Z AUTO 25012KT 10SM CLR 10/M03 A3024 RMK AO2 SLP172 T01001028
Loading
Personal Weather Stations






























Interactive Weather Map
Tropical Storm Tracking
New forecast layout! Learn more

10-Day Weather Forecast

Advertisements
Track Severe Weather on mobile